Terminal Aerodrome Forecast
Issued by NWS

Current Version | Previous Version | Text Only | Print | Product List | Glossary On
Versions: 1 2 3 4 5 6 7 8 9 10 11 12 13 14 15 16
000
FTAK31 PAFA 282326
TAFATA
TAF
PATA 282326Z 2900/2924 09007KT P6SM VCSH OVC035
     FM290600 06004KT 3SM -SN BR SCT015 BKN025 OVC045
     FM291600 10004KT 6SM -SN BR SCT025 BKN035 OVC045=

USA.gov is the U.S. government's official web portal to all federal, state and local government web resources and services.